Enkhuizen, Netherlands
Current Conditions -  °F | °C
As of 5:55 PM on Wednesday 22 Oct 2014 (Local Time) from EHKD Reporting Station
Broken Clouds Broken Clouds  
Wind Chill: 54°   Ceiling: 4500
Heat Index: 54°   Visibility: 6mi
Dew Point: 43°   Wind: 15mph
Humidity: 67%   Direction: 320°NW
Pressure: 30.09"   Gusts: NA
Location:  52.7°N, 5.29°E
Report Text: EHKD 221555Z AUTO 32013KT 9999 FEW031 SCT038 BKN045 12/06 Q1019 BLU 32013KT 9999 FEW025 SCT050 TEMPO SCT020CB BKN040
Loading
Personal Weather Stations






























Interactive Weather Map
Tropical Storm Tracking
New forecast layout! Learn more

10-Day Weather Forecast

Advertisements
Track Severe Weather on mobile